createdAt,value
2018-06-19T00:01:47.292Z,1.90
2018-06-19T00:04:15.564Z,2.50
2018-06-19T00:06:43.861Z,2.43
2018-06-19T00:09:12.143Z,2.50
2018-06-19T00:11:40.451Z,2.33
2018-06-19T00:14:08.775Z,2.17
2018-06-19T00:16:37.070Z,2.73
2018-06-19T00:19:06.239Z,2.30
2018-06-19T00:21:54.692Z,3.37
2018-06-19T00:24:23.139Z,3.00
2018-06-19T00:26:51.467Z,2.60
2018-06-19T00:29:20.417Z,2.73
2018-06-19T00:31:48.711Z,2.20
2018-06-19T00:34:16.997Z,2.20
2018-06-19T00:36:45.276Z,2.23
2018-06-19T00:39:13.616Z,2.37
2018-06-19T00:41:42.235Z,2.40
2018-06-19T00:44:11.308Z,2.60
2018-06-19T00:46:42.149Z,2.03
2018-06-19T00:49:10.485Z,2.80
2018-06-19T00:51:38.838Z,2.80
2018-06-19T00:54:07.144Z,2.20
2018-06-19T00:56:40.607Z,2.50
2018-06-19T00:59:08.958Z,2.60
2018-06-19T01:01:37.209Z,2.50
2018-06-19T01:04:05.204Z,2.70
2018-06-19T01:06:33.486Z,2.37
2018-06-19T01:09:01.763Z,2.70
2018-06-19T01:11:30.109Z,2.30
2018-06-19T01:13:58.175Z,2.70
2018-06-19T01:16:26.403Z,2.80
2018-06-19T01:18:55.054Z,1.90
2018-06-19T01:21:23.384Z,2.27
2018-06-19T01:23:51.693Z,2.43
2018-06-19T01:26:19.702Z,2.30
2018-06-19T01:28:48.021Z,2.00
2018-06-19T01:31:16.304Z,2.47
2018-06-19T01:33:44.382Z,1.97
2018-06-19T01:36:12.672Z,2.00
2018-06-19T01:38:40.939Z,2.20
2018-06-19T01:41:08.985Z,2.50
2018-06-19T01:43:37.289Z,2.30
2018-06-19T01:46:05.698Z,2.10
2018-06-19T01:48:33.976Z,2.20
2018-06-19T01:51:02.231Z,2.03
2018-06-19T01:53:30.541Z,2.17
2018-06-19T01:55:58.843Z,2.17
2018-06-19T01:58:27.134Z,2.20
2018-06-19T02:00:55.387Z,2.30
2018-06-19T02:03:23.663Z,2.23
2018-06-19T02:05:51.957Z,2.47
2018-06-19T02:08:20.252Z,2.63
2018-06-19T02:10:48.249Z,2.60
2018-06-19T02:13:16.546Z,2.90
2018-06-19T02:15:44.841Z,2.80
2018-06-19T02:18:13.214Z,2.90
2018-06-19T02:20:41.469Z,3.50
2018-06-19T02:23:09.707Z,3.33
2018-06-19T02:25:37.723Z,2.70
2018-06-19T02:28:05.992Z,2.70
2018-06-19T02:30:34.303Z,3.30
2018-06-19T02:33:02.602Z,3.33
2018-06-19T02:35:30.615Z,2.97
2018-06-19T02:37:58.942Z,3.07
2018-06-19T02:40:27.192Z,2.77
2018-06-19T02:42:55.480Z,2.97
2018-06-19T02:45:23.808Z,3.07
2018-06-19T02:47:52.074Z,2.70
2018-06-19T02:50:20.339Z,2.20
2018-06-19T02:52:48.381Z,2.60
2018-06-19T02:55:16.660Z,2.57
2018-06-19T02:57:44.949Z,2.80
2018-06-19T03:00:13.324Z,2.70
2018-06-19T03:02:41.596Z,2.70
2018-06-19T03:05:09.912Z,2.80
2018-06-19T03:07:38.189Z,2.70
2018-06-19T03:10:06.708Z,2.80
2018-06-19T03:12:34.965Z,2.47
2018-06-19T03:15:03.267Z,2.47
2018-06-19T03:17:31.243Z,3.00
2018-06-19T03:19:59.547Z,2.63
2018-06-19T03:22:27.797Z,2.10
2018-06-19T03:24:56.735Z,2.30
2018-06-19T03:27:25.059Z,2.23
2018-06-19T03:29:53.392Z,2.57
2018-06-19T03:32:21.749Z,2.60
2018-06-19T03:34:49.766Z,2.00
2018-06-19T03:37:18.048Z,2.10
2018-06-19T03:39:46.360Z,2.53
2018-06-19T03:42:14.636Z,2.67
2018-06-19T03:44:42.947Z,2.20
2018-06-19T03:47:11.228Z,2.23
2018-06-19T03:49:39.530Z,2.27
2018-06-19T03:52:08.813Z,2.67
2018-06-19T03:54:37.096Z,2.20
2018-06-19T03:57:05.403Z,2.80
2018-06-19T03:59:33.907Z,2.10
2018-06-19T04:02:02.161Z,2.43
2018-06-19T04:04:30.476Z,2.73
2018-06-19T04:06:58.773Z,2.60
2018-06-19T04:09:27.044Z,2.60
2018-06-19T04:11:55.312Z,2.60
2018-06-19T04:14:23.583Z,2.47
2018-06-19T04:16:51.864Z,2.80
2018-06-19T04:19:20.150Z,2.30
2018-06-19T04:21:48.420Z,2.60
2018-06-19T04:24:16.680Z,2.40
2018-06-19T04:26:44.723Z,2.60
2018-06-19T04:29:12.983Z,2.60
2018-06-19T04:31:41.235Z,2.80
2018-06-19T04:34:09.464Z,2.37
2018-06-19T04:36:37.776Z,2.43
2018-06-19T04:39:09.463Z,2.70
2018-06-19T04:41:37.772Z,2.30
2018-06-19T04:44:06.134Z,2.20
2018-06-19T04:46:34.454Z,2.60
2018-06-19T04:49:02.689Z,2.27
2018-06-19T04:51:30.965Z,2.50
2018-06-19T04:53:59.325Z,2.30
2018-06-19T04:56:27.567Z,2.40
2018-06-19T04:58:55.852Z,2.03
2018-06-19T05:01:24.365Z,2.33
2018-06-19T05:03:52.763Z,2.60
2018-06-19T05:06:21.029Z,2.30
2018-06-19T05:08:49.319Z,2.20
2018-06-19T05:11:17.620Z,2.40
2018-06-19T05:13:45.625Z,2.00
2018-06-19T05:16:13.927Z,2.73
2018-06-19T05:18:42.222Z,2.10
2018-06-19T05:21:10.496Z,2.20
2018-06-19T05:23:38.750Z,2.60
2018-06-19T05:26:07.090Z,2.20
2018-06-19T05:28:35.396Z,2.33
2018-06-19T05:31:03.687Z,2.67
2018-06-19T05:33:31.974Z,2.13
2018-06-19T05:36:00.259Z,2.47
2018-06-19T05:38:28.527Z,2.10
2018-06-19T05:40:56.844Z,2.20
2018-06-19T05:43:25.099Z,2.23
2018-06-19T05:45:53.380Z,2.07
2018-06-19T05:48:21.672Z,2.37
2018-06-19T05:50:49.950Z,2.73
2018-06-19T05:53:18.326Z,2.60
2018-06-19T05:55:46.657Z,2.77
2018-06-19T05:58:14.993Z,2.37
2018-06-19T06:00:43.227Z,2.23
2018-06-19T06:03:11.534Z,2.07
2018-06-19T06:05:39.906Z,2.40
2018-06-19T06:08:08.147Z,2.27
2018-06-19T06:10:36.525Z,1.80
2018-06-19T06:13:04.797Z,2.10
2018-06-19T06:15:33.145Z,2.10
2018-06-19T06:18:01.427Z,2.47
2018-06-19T06:20:29.709Z,2.40
2018-06-19T06:22:57.999Z,2.43
2018-06-19T06:25:26.285Z,2.00
2018-06-19T06:27:54.618Z,1.90
2018-06-19T06:30:22.900Z,2.27
2018-06-19T06:32:51.197Z,2.30
2018-06-19T06:35:19.452Z,2.27
2018-06-19T06:37:47.775Z,2.03
2018-06-19T06:40:16.027Z,2.40
2018-06-19T06:42:44.340Z,2.70
2018-06-19T06:45:12.612Z,2.20
2018-06-19T06:47:40.915Z,2.80
2018-06-19T06:50:12.267Z,3.23
2018-06-19T06:52:40.495Z,3.10
2018-06-19T06:55:08.809Z,3.10
2018-06-19T06:57:37.127Z,3.30
2018-06-19T07:00:05.437Z,3.00
2018-06-19T07:02:33.706Z,3.20
2018-06-19T07:05:01.982Z,3.20
2018-06-19T07:07:30.244Z,3.07
2018-06-19T07:09:58.608Z,2.67
2018-06-19T07:12:26.583Z,2.80
2018-06-19T07:14:54.832Z,3.57
2018-06-19T07:17:23.136Z,3.13
2018-06-19T07:19:51.379Z,2.73
2018-06-19T07:22:19.750Z,3.00
2018-06-19T07:24:48.019Z,3.10
2018-06-19T07:27:16.330Z,3.27
2018-06-19T07:29:44.707Z,2.60
2018-06-19T07:32:12.944Z,2.80
2018-06-19T07:34:41.240Z,2.83
2018-06-19T07:37:09.245Z,2.63
2018-06-19T07:39:37.461Z,3.07
2018-06-19T07:42:05.775Z,2.83
2018-06-19T07:44:34.068Z,2.80
2018-06-19T07:47:02.353Z,2.73
2018-06-19T07:49:30.690Z,2.57
2018-06-19T07:51:59.000Z,2.73
2018-06-19T07:54:27.263Z,2.70
2018-06-19T07:56:55.560Z,2.30
2018-06-19T07:59:25.538Z,3.60
2018-06-19T08:01:53.859Z,3.17
2018-06-19T08:04:22.202Z,2.57
2018-06-19T08:06:50.496Z,2.53
2018-06-19T08:09:25.451Z,3.40
2018-06-19T08:11:53.416Z,2.60
2018-06-19T08:14:21.717Z,2.47
2018-06-19T08:16:49.992Z,2.53
2018-06-19T08:19:18.297Z,2.87
2018-06-19T08:21:46.599Z,2.70
2018-06-19T08:24:15.136Z,2.93
2018-06-19T08:26:43.072Z,2.87
2018-06-19T08:29:11.384Z,2.70
2018-06-19T08:31:39.745Z,3.13
2018-06-19T08:34:08.052Z,2.77
2018-06-19T08:36:36.328Z,2.60
2018-06-19T08:39:08.084Z,2.70
2018-06-19T08:41:36.390Z,3.10
2018-06-19T08:44:04.388Z,2.93
2018-06-19T08:46:32.666Z,2.90
2018-06-19T08:49:00.923Z,2.93
2018-06-19T08:51:28.938Z,2.87
2018-06-19T08:53:57.209Z,2.63
2018-06-19T08:56:25.491Z,2.77
2018-06-19T08:58:53.748Z,2.40
2018-06-19T09:01:22.133Z,2.77
2018-06-19T09:03:50.504Z,2.33
2018-06-19T09:06:18.765Z,3.30
2018-06-19T09:08:47.289Z,2.97
2018-06-19T09:11:15.603Z,2.67
2018-06-19T09:13:43.704Z,2.40
2018-06-19T09:16:11.996Z,2.77
2018-06-19T09:18:40.266Z,3.10
2018-06-19T09:21:08.953Z,2.53
2018-06-19T09:23:37.437Z,2.80
2018-06-19T09:26:05.817Z,2.73
2018-06-19T09:28:34.087Z,3.30
2018-06-19T09:31:02.396Z,2.83
2018-06-19T09:33:30.737Z,3.03
2018-06-19T09:35:59.043Z,2.97
2018-06-19T09:38:27.347Z,3.20
2018-06-19T09:40:55.651Z,2.63
2018-06-19T09:43:24.064Z,3.00
2018-06-19T09:45:52.375Z,3.10
2018-06-19T09:48:20.712Z,3.33
2018-06-19T09:50:49.063Z,3.13
2018-06-19T09:53:17.186Z,3.20
2018-06-19T09:55:45.583Z,4.03
2018-06-19T09:58:14.186Z,3.57
2018-06-19T10:00:42.296Z,3.73
2018-06-19T10:03:10.704Z,3.80
2018-06-19T10:05:39.090Z,3.20
2018-06-19T10:08:07.345Z,3.20
2018-06-19T10:10:35.707Z,3.23
2018-06-19T10:13:04.043Z,4.07
2018-06-19T10:15:32.334Z,3.80
2018-06-19T10:18:00.643Z,4.07
2018-06-19T10:20:29.030Z,3.90
2018-06-19T10:22:57.291Z,3.40
2018-06-19T10:25:25.613Z,3.47
2018-06-19T10:27:53.965Z,2.73
2018-06-19T10:30:22.247Z,2.87
2018-06-19T10:32:50.562Z,3.10
2018-06-19T10:35:18.828Z,3.13
2018-06-19T10:37:47.078Z,3.53
2018-06-19T10:40:15.472Z,3.30
2018-06-19T10:42:43.732Z,3.77
2018-06-19T10:45:12.136Z,3.80
2018-06-19T10:47:40.447Z,3.57
2018-06-19T10:50:08.896Z,3.27
2018-06-19T10:52:37.188Z,3.60
2018-06-19T10:55:05.479Z,3.73
2018-06-19T10:57:33.499Z,3.43
2018-06-19T11:00:01.829Z,3.00
2018-06-19T11:02:30.080Z,3.67
2018-06-19T11:04:58.341Z,3.40
2018-06-19T11:07:28.332Z,3.30
2018-06-19T11:09:57.624Z,3.40
2018-06-19T11:12:26.308Z,3.27
2018-06-19T11:14:54.591Z,3.77
2018-06-19T11:17:22.855Z,3.53
2018-06-19T11:19:51.463Z,3.33
2018-06-19T11:22:19.765Z,3.17
2018-06-19T11:24:48.032Z,3.10
2018-06-19T11:27:16.597Z,3.33
2018-06-19T11:29:45.270Z,4.20
2018-06-19T11:32:14.071Z,3.30
2018-06-19T11:34:42.637Z,3.43
2018-06-19T11:37:10.939Z,3.13
2018-06-19T11:39:39.188Z,3.03
2018-06-19T11:42:07.471Z,4.00
2018-06-19T11:44:35.796Z,3.67
2018-06-19T11:47:04.098Z,3.03
2018-06-19T11:49:32.159Z,3.73
2018-06-19T11:52:00.201Z,3.27
2018-06-19T11:54:28.484Z,3.53
2018-06-19T11:56:56.835Z,3.17
2018-06-19T11:59:26.407Z,3.13
2018-06-19T12:01:54.737Z,3.73
2018-06-19T12:04:23.068Z,3.40
2018-06-19T12:06:51.328Z,2.83
2018-06-19T12:09:19.408Z,2.97
2018-06-19T12:11:47.399Z,2.40
2018-06-19T12:14:15.675Z,3.00
2018-06-19T12:16:43.966Z,3.00
2018-06-19T12:19:12.236Z,2.83
2018-06-19T12:21:40.636Z,2.73
2018-06-19T12:24:09.018Z,2.47
2018-06-19T12:26:37.305Z,2.77
2018-06-19T12:29:05.643Z,2.50
2018-06-19T12:31:33.937Z,2.23
2018-06-19T12:34:02.391Z,2.37
2018-06-19T12:36:30.764Z,2.60
2018-06-19T12:38:59.094Z,2.13
2018-06-19T12:41:37.668Z,2.40
2018-06-19T12:44:05.982Z,3.63
2018-06-19T12:46:34.256Z,4.07
2018-06-19T12:49:02.552Z,3.20
2018-06-19T12:51:54.646Z,3.90
2018-06-19T12:54:39.664Z,3.53
2018-06-19T12:57:07.905Z,3.30
2018-06-19T12:59:36.849Z,3.03
2018-06-19T13:02:05.133Z,3.20
2018-06-19T13:04:38.860Z,2.93
2018-06-19T13:07:07.197Z,3.40
2018-06-19T13:09:35.450Z,2.70
2018-06-19T13:12:03.722Z,2.40
2018-06-19T13:14:38.607Z,3.20
2018-06-19T13:17:18.398Z,2.90
2018-06-19T13:19:57.875Z,3.47
2018-06-19T13:22:26.283Z,3.10
2018-06-19T13:24:54.633Z,3.43
2018-06-19T13:27:22.656Z,3.00
2018-06-19T13:30:04.720Z,2.83
2018-06-19T13:32:33.628Z,3.13
2018-06-19T13:35:01.903Z,2.60
2018-06-19T13:37:30.202Z,3.10
2018-06-19T13:41:11.005Z,3.17
2018-06-19T13:43:50.591Z,2.70
2018-06-19T13:46:18.982Z,3.07
2018-06-19T13:48:47.295Z,3.27
2018-06-19T13:51:15.598Z,3.40
2018-06-19T13:53:44.410Z,2.93
2018-06-19T13:57:34.083Z,3.40
2018-06-19T14:00:04.578Z,3.07
2018-06-19T14:02:33.521Z,3.47
2018-06-19T14:05:02.335Z,3.33
2018-06-19T14:07:36.849Z,3.83
2018-06-19T14:11:17.318Z,3.13
2018-06-19T14:13:45.652Z,3.40
2018-06-19T14:16:13.931Z,2.93
2018-06-19T14:18:42.219Z,3.20
2018-06-19T14:21:10.547Z,3.00
2018-06-19T14:23:38.944Z,2.90
2018-06-19T14:26:07.315Z,3.67
2018-06-19T14:28:35.596Z,3.47
2018-06-19T14:31:03.832Z,2.80
2018-06-19T14:33:32.119Z,3.00
2018-06-19T14:36:00.451Z,3.13
2018-06-19T14:38:28.740Z,2.80
2018-06-19T14:40:56.959Z,2.87
2018-06-19T14:43:25.240Z,3.30
2018-06-19T14:45:53.533Z,2.73
2018-06-19T14:48:21.838Z,2.17
2018-06-19T14:50:50.097Z,2.67
2018-06-19T14:53:18.376Z,2.67
2018-06-19T14:55:46.675Z,2.60
2018-06-19T14:58:15.233Z,2.17
2018-06-19T15:00:43.592Z,2.27
2018-06-19T15:03:11.826Z,2.50
2018-06-19T15:05:39.838Z,2.23
2018-06-19T15:08:08.113Z,2.07
2018-06-19T15:10:36.500Z,2.07
2018-06-19T15:13:04.859Z,2.00
2018-06-19T15:15:33.258Z,2.33
2018-06-19T15:18:01.533Z,1.90
2018-06-19T15:20:29.848Z,2.53
2018-06-19T15:22:58.112Z,2.03
2018-06-19T15:25:26.433Z,2.30
2018-06-19T15:27:54.717Z,2.10
2018-06-19T15:30:22.964Z,2.00
2018-06-19T15:32:50.988Z,2.40
2018-06-19T15:35:19.264Z,2.10
2018-06-19T15:37:47.603Z,2.47
2018-06-19T15:40:15.771Z,2.40
2018-06-19T15:42:44.056Z,2.40
2018-06-19T15:45:12.321Z,2.00
2018-06-19T15:47:40.583Z,2.10
2018-06-19T15:50:08.639Z,2.60
2018-06-19T15:52:37.032Z,2.10
2018-06-19T15:55:05.282Z,2.13
2018-06-19T15:57:33.551Z,2.10
2018-06-19T16:00:01.825Z,2.17
2018-06-19T16:02:30.089Z,2.10
2018-06-19T16:04:58.472Z,1.80
2018-06-19T16:07:26.771Z,2.10
2018-06-19T16:09:55.169Z,2.00
2018-06-19T16:12:23.457Z,2.00
2018-06-19T16:14:51.723Z,2.00
2018-06-19T16:17:20.032Z,1.70
2018-06-19T16:19:48.346Z,1.73
2018-06-19T16:22:16.649Z,1.67
2018-06-19T16:24:44.890Z,1.90
2018-06-19T16:27:13.246Z,1.97
2018-06-19T16:29:41.831Z,1.87
2018-06-19T16:32:10.089Z,2.33
2018-06-19T16:34:38.323Z,2.23
2018-06-19T16:37:06.645Z,2.03
2018-06-19T16:39:34.964Z,1.80
2018-06-19T16:42:03.365Z,2.50
2018-06-19T16:44:31.647Z,2.37
2018-06-19T16:46:59.963Z,2.20
2018-06-19T16:49:28.264Z,2.37
2018-06-19T16:51:56.551Z,2.40
2018-06-19T16:54:24.977Z,2.33
2018-06-19T16:56:52.955Z,2.10
2018-06-19T16:59:22.354Z,2.77
2018-06-19T17:01:50.681Z,2.67
2018-06-19T17:04:19.093Z,1.90
2018-06-19T17:06:47.411Z,2.50
2018-06-19T17:09:15.398Z,2.00
2018-06-19T17:11:43.675Z,2.10
2018-06-19T17:14:11.959Z,3.50
2018-06-19T17:16:40.304Z,2.93
2018-06-19T17:19:08.746Z,2.90
2018-06-19T17:21:37.136Z,2.43
2018-06-19T17:24:05.439Z,2.53
2018-06-19T17:26:33.789Z,2.50
2018-06-19T17:29:01.808Z,2.30
2018-06-19T17:31:30.101Z,2.30
2018-06-19T17:33:58.408Z,1.90
2018-06-19T17:36:26.747Z,2.30
2018-06-19T17:38:55.070Z,2.20
2018-06-19T17:41:23.361Z,2.00
2018-06-19T17:43:51.621Z,1.80
2018-06-19T17:46:19.890Z,2.17
2018-06-19T17:48:48.207Z,1.93
2018-06-19T17:51:16.232Z,1.80
2018-06-19T17:53:44.537Z,2.50
2018-06-19T17:56:12.801Z,2.00
2018-06-19T17:58:41.083Z,1.93
2018-06-19T18:01:09.456Z,1.97
2018-06-19T18:03:37.737Z,2.20
2018-06-19T18:06:06.041Z,2.17
2018-06-19T18:08:34.348Z,1.70
2018-06-19T18:11:02.627Z,2.23
2018-06-19T18:13:37.402Z,2.30
2018-06-19T18:16:05.744Z,2.30
2018-06-19T18:18:34.069Z,2.10
2018-06-19T18:21:02.348Z,1.90
2018-06-19T18:23:30.636Z,2.40
2018-06-19T18:25:58.883Z,1.83
2018-06-19T18:28:27.230Z,1.90
2018-06-19T18:30:55.556Z,1.90
2018-06-19T18:33:23.842Z,2.20
2018-06-19T18:35:52.159Z,2.00
2018-06-19T18:38:20.419Z,2.10
2018-06-19T18:40:48.768Z,1.73
2018-06-19T18:43:17.024Z,1.70
2018-06-19T18:45:45.269Z,1.83
2018-06-19T18:48:13.588Z,1.90
2018-06-19T18:50:41.871Z,1.90
2018-06-19T18:53:10.143Z,2.50
2018-06-19T18:55:38.472Z,2.17
2018-06-19T18:58:06.772Z,2.63
2018-06-19T19:00:35.056Z,2.33
2018-06-19T19:03:03.388Z,2.07
2018-06-19T19:05:31.700Z,1.70
2018-06-19T19:08:00.022Z,1.80
2018-06-19T19:10:33.599Z,2.00
2018-06-19T19:13:01.868Z,1.90
2018-06-19T19:16:33.945Z,2.10
2018-06-19T19:19:04.126Z,1.47
2018-06-19T19:21:32.378Z,1.70
2018-06-19T19:24:00.633Z,1.80
2018-06-19T19:26:34.737Z,1.70
2018-06-19T19:29:08.637Z,2.10
2018-06-19T19:31:36.857Z,1.70
2018-06-19T19:34:09.705Z,1.67
2018-06-19T19:36:46.046Z,1.80
2018-06-19T19:39:26.373Z,1.50
2018-06-19T19:41:58.714Z,1.80
2018-06-19T19:44:27.416Z,1.63
2018-06-19T19:47:01.083Z,1.60
2018-06-19T19:49:29.396Z,1.50
2018-06-19T19:51:57.708Z,1.70
2018-06-19T19:54:25.994Z,2.03
2018-06-19T19:56:59.600Z,1.87
2018-06-19T19:59:29.116Z,1.70
2018-06-19T20:01:57.465Z,1.70
2018-06-19T20:04:26.964Z,1.50
2018-06-19T20:06:55.275Z,1.70
2018-06-19T20:09:23.533Z,1.70
2018-06-19T20:11:51.774Z,2.00
2018-06-19T20:14:20.029Z,1.80
2018-06-19T20:16:48.325Z,1.97
2018-06-19T20:19:16.303Z,1.97
2018-06-19T20:21:44.306Z,1.93
2018-06-19T20:24:12.601Z,2.00
2018-06-19T20:26:40.879Z,2.10
2018-06-19T20:29:09.292Z,1.90
2018-06-19T20:31:37.555Z,2.00
2018-06-19T20:34:06.213Z,1.60
2018-06-19T20:36:34.521Z,2.07
2018-06-19T20:39:02.821Z,1.83
2018-06-19T20:41:30.840Z,2.00
2018-06-19T20:43:59.107Z,2.20
2018-06-19T20:46:27.381Z,2.10
2018-06-19T20:48:55.653Z,2.20
2018-06-19T20:51:23.959Z,1.97
2018-06-19T20:53:52.303Z,2.40
2018-06-19T20:56:20.580Z,2.17
2018-06-19T20:58:48.835Z,2.10
2018-06-19T21:01:16.885Z,2.27
2018-06-19T21:03:45.242Z,2.20
2018-06-19T21:06:13.556Z,2.20
2018-06-19T21:08:42.619Z,1.80
2018-06-19T21:11:12.527Z,2.10
2018-06-19T21:13:40.797Z,2.40
2018-06-19T21:16:09.668Z,2.00
2018-06-19T21:18:38.391Z,2.77
2018-06-19T21:21:07.065Z,1.97
2018-06-19T21:23:35.355Z,2.00
2018-06-19T21:26:03.687Z,2.00
2018-06-19T21:28:31.977Z,1.90
2018-06-19T21:31:00.231Z,2.10
2018-06-19T21:33:28.567Z,2.33
2018-06-19T21:35:56.933Z,2.00
2018-06-19T21:38:25.160Z,2.37
2018-06-19T21:40:53.487Z,2.30
2018-06-19T21:43:21.797Z,2.43
2018-06-19T21:45:50.008Z,2.40
2018-06-19T21:48:18.256Z,2.50
2018-06-19T21:50:46.565Z,2.27
2018-06-19T21:53:14.864Z,2.27
2018-06-19T21:55:43.145Z,2.60
2018-06-19T21:58:20.024Z,2.50
2018-06-19T22:00:48.318Z,2.50
2018-06-19T22:03:16.631Z,2.33
2018-06-19T22:05:44.929Z,2.43
2018-06-19T22:08:13.183Z,2.07
2018-06-19T22:10:41.508Z,2.50
2018-06-19T22:13:10.194Z,2.10
2018-06-19T22:15:38.624Z,2.50
2018-06-19T22:18:06.977Z,2.40
2018-06-19T22:20:35.273Z,2.47
2018-06-19T22:23:03.559Z,2.70
2018-06-19T22:25:31.876Z,2.10
2018-06-19T22:28:00.183Z,2.30
2018-06-19T22:30:28.504Z,2.13
2018-06-19T22:32:56.796Z,2.40
2018-06-19T22:35:25.056Z,2.40
2018-06-19T22:37:53.344Z,2.00
2018-06-19T22:40:21.595Z,2.17
2018-06-19T22:42:49.927Z,2.33
2018-06-19T22:45:18.227Z,2.20
2018-06-19T22:47:46.493Z,2.10
2018-06-19T22:50:14.752Z,2.30
2018-06-19T22:52:43.038Z,2.07
2018-06-19T22:55:11.351Z,2.50
2018-06-19T22:57:39.369Z,2.30
2018-06-19T23:00:07.660Z,2.17
2018-06-19T23:02:35.920Z,2.57
2018-06-19T23:05:04.318Z,2.30
2018-06-19T23:07:32.552Z,2.27
2018-06-19T23:10:00.858Z,2.40
2018-06-19T23:12:29.172Z,2.40
2018-06-19T23:14:57.432Z,1.90
2018-06-19T23:17:25.737Z,2.13
2018-06-19T23:19:54.030Z,2.30
2018-06-19T23:22:22.296Z,2.63
2018-06-19T23:24:50.577Z,2.27
2018-06-19T23:27:18.595Z,2.43
2018-06-19T23:29:47.304Z,2.90
2018-06-19T23:32:15.624Z,2.50
2018-06-19T23:34:43.861Z,2.10
2018-06-19T23:37:12.215Z,2.20
2018-06-19T23:39:40.472Z,2.47
2018-06-19T23:42:08.764Z,2.20
2018-06-19T23:44:37.056Z,2.27
2018-06-19T23:47:05.324Z,2.50
2018-06-19T23:49:33.689Z,2.40
2018-06-19T23:52:01.644Z,2.20
2018-06-19T23:54:29.919Z,2.70
2018-06-19T23:56:58.168Z,2.37
2018-06-19T23:59:27.062Z,2.27
